createdAt,value
2023-02-06T00:01:16.455Z,23.50
2023-02-06T00:03:43.245Z,24.77
2023-02-06T00:06:10.459Z,24.70
2023-02-06T00:08:37.268Z,25.25
2023-02-06T00:11:07.612Z,30.27
2023-02-06T00:13:35.887Z,26.88
2023-02-06T00:16:03.737Z,30.95
2023-02-06T00:18:30.727Z,30.92
2023-02-06T00:20:58.160Z,28.42
2023-02-06T00:23:24.906Z,29.73
2023-02-06T00:25:51.677Z,28.95
2023-02-06T00:28:18.698Z,27.30
2023-02-06T00:30:48.971Z,28.30
2023-02-06T00:33:16.144Z,27.20
2023-02-06T00:35:42.897Z,26.20
2023-02-06T00:38:11.722Z,25.88
2023-02-06T00:40:38.950Z,26.38
2023-02-06T00:43:06.283Z,24.50
2023-02-06T00:45:33.576Z,26.30
2023-02-06T00:48:01.240Z,25.75
2023-02-06T00:50:28.172Z,25.60
2023-02-06T00:52:55.000Z,24.60
2023-02-06T00:55:22.146Z,24.60
2023-02-06T00:57:49.053Z,21.35
2023-02-06T01:00:16.845Z,22.85
2023-02-06T01:02:43.796Z,21.40
2023-02-06T01:05:11.102Z,24.90
2023-02-06T01:07:40.869Z,22.05
2023-02-06T01:10:11.341Z,21.90
2023-02-06T01:12:38.240Z,22.98
2023-02-06T01:15:08.225Z,22.42
2023-02-06T01:17:35.078Z,21.83
2023-02-06T01:20:02.464Z,24.25
2023-02-06T01:22:29.318Z,21.40
2023-02-06T01:24:56.135Z,21.55
2023-02-06T01:27:22.926Z,21.83
2023-02-06T01:29:49.720Z,23.25
2023-02-06T01:32:16.833Z,24.10
2023-02-06T01:34:43.753Z,21.10
2023-02-06T01:37:10.662Z,22.35
2023-02-06T01:39:37.578Z,23.27
2023-02-06T01:42:04.766Z,22.00
2023-02-06T01:44:33.637Z,22.40
2023-02-06T01:47:00.534Z,22.00
2023-02-06T01:49:45.909Z,19.33
2023-02-06T01:52:24.592Z,19.50
2023-02-06T01:54:57.725Z,19.90
2023-02-06T01:57:27.250Z,18.85
2023-02-06T02:00:00.844Z,19.50
2023-02-06T02:02:29.394Z,18.92
2023-02-06T02:04:57.641Z,18.35
2023-02-06T02:07:25.773Z,18.00
2023-02-06T02:09:53.546Z,19.63
2023-02-06T02:12:20.860Z,18.63
2023-02-06T02:14:50.836Z,16.80
2023-02-06T02:17:52.025Z,18.98
2023-02-06T02:20:49.870Z,18.25
2023-02-06T02:23:38.582Z,19.25
2023-02-06T02:26:27.499Z,18.88
2023-02-06T02:29:18.373Z,15.68
2023-02-06T02:32:16.426Z,18.48
2023-02-06T02:35:10.875Z,16.50
2023-02-06T02:38:00.843Z,15.38
2023-02-06T02:40:36.652Z,14.40
2023-02-06T02:43:38.545Z,14.70
2023-02-06T02:46:14.830Z,13.48
2023-02-06T02:48:46.532Z,13.02
2023-02-06T02:51:14.808Z,13.65
2023-02-06T02:53:41.577Z,11.70
2023-02-06T02:56:19.862Z,11.18
2023-02-06T02:58:51.619Z,12.13
2023-02-06T03:01:25.235Z,10.32
2023-02-06T03:03:55.759Z,11.80
2023-02-06T03:06:44.585Z,11.40
2023-02-06T03:09:54.098Z,12.35
2023-02-06T03:12:43.378Z,14.23
2023-02-06T03:15:44.537Z,12.60
2023-02-06T03:18:29.899Z,14.40
2023-02-06T03:20:59.146Z,14.27
2023-02-06T03:23:34.818Z,13.48
2023-02-06T03:26:07.770Z,13.25
2023-02-06T03:28:39.689Z,12.55
2023-02-06T03:31:13.722Z,13.45
2023-02-06T03:33:52.696Z,12.75
2023-02-06T03:36:20.521Z,13.00
2023-02-06T03:38:50.262Z,13.10
2023-02-06T03:41:27.347Z,12.07
2023-02-06T03:43:55.361Z,13.27
2023-02-06T03:46:26.105Z,13.70
2023-02-06T03:48:59.388Z,12.73
2023-02-06T03:51:33.836Z,11.38
2023-02-06T03:54:04.685Z,12.68
2023-02-06T03:56:44.526Z,14.13
2023-02-06T03:59:11.881Z,13.73
2023-02-06T04:01:52.086Z,14.98
2023-02-06T04:04:21.742Z,14.25
2023-02-06T04:06:48.593Z,14.63
2023-02-06T04:09:15.341Z,16.23
2023-02-06T04:11:42.170Z,15.30
2023-02-06T04:14:08.915Z,15.23
2023-02-06T04:16:35.845Z,14.55
2023-02-06T04:19:02.674Z,15.30
2023-02-06T04:21:29.413Z,14.45
2023-02-06T04:23:56.534Z,15.85
2023-02-06T04:26:23.367Z,15.93
2023-02-06T04:28:50.175Z,14.30
2023-02-06T04:31:17.052Z,14.40
2023-02-06T04:33:43.931Z,15.65
2023-02-06T04:36:10.784Z,14.45
2023-02-06T04:38:37.932Z,14.50
2023-02-06T04:41:06.921Z,15.25
2023-02-06T04:43:34.396Z,14.77
2023-02-06T04:46:01.265Z,16.63
2023-02-06T04:48:28.228Z,15.27
2023-02-06T04:50:55.013Z,13.75
2023-02-06T04:53:21.868Z,13.32
2023-02-06T04:55:49.014Z,12.13
2023-02-06T04:58:15.777Z,13.25
2023-02-06T05:00:42.581Z,12.07
2023-02-06T05:03:09.348Z,14.30
2023-02-06T05:05:36.403Z,13.73
2023-02-06T05:08:03.296Z,13.73
2023-02-06T05:10:30.373Z,11.07
2023-02-06T05:12:57.225Z,12.02
2023-02-06T05:15:24.221Z,12.07
2023-02-06T05:17:51.110Z,11.85
2023-02-06T05:20:18.035Z,12.07
2023-02-06T05:22:45.018Z,12.55
2023-02-06T05:25:11.793Z,11.70
2023-02-06T05:27:38.563Z,12.10
2023-02-06T05:30:06.051Z,11.00
2023-02-06T05:32:32.817Z,10.30
2023-02-06T05:34:59.614Z,12.38
2023-02-06T05:37:26.577Z,14.30
2023-02-06T05:39:53.395Z,15.00
2023-02-06T05:42:20.212Z,12.98
2023-02-06T05:44:47.084Z,13.65
2023-02-06T05:47:13.986Z,14.50
2023-02-06T05:49:40.997Z,13.35
2023-02-06T05:52:07.752Z,12.95
2023-02-06T05:54:34.552Z,15.25
2023-02-06T05:57:01.409Z,14.90
2023-02-06T05:59:28.286Z,13.35
2023-02-06T06:01:55.342Z,14.65
2023-02-06T06:04:22.627Z,13.15
2023-02-06T06:06:49.512Z,13.73
2023-02-06T06:09:16.381Z,13.40
2023-02-06T06:11:43.305Z,13.77
2023-02-06T06:14:11.751Z,13.55
2023-02-06T06:16:39.008Z,16.20
2023-02-06T06:19:05.765Z,14.73
2023-02-06T06:21:34.197Z,14.25
2023-02-06T06:24:02.087Z,13.82
2023-02-06T06:26:29.233Z,15.18
2023-02-06T06:28:56.822Z,13.65
2023-02-06T06:31:23.853Z,14.52
2023-02-06T06:33:50.803Z,14.93
2023-02-06T06:36:17.570Z,16.77
2023-02-06T06:38:44.526Z,15.63
2023-02-06T06:41:11.433Z,21.05
2023-02-06T06:43:38.422Z,19.08
2023-02-06T06:46:06.374Z,20.77
2023-02-06T06:48:33.312Z,18.40
2023-02-06T06:51:00.401Z,17.52
2023-02-06T06:53:27.175Z,16.55
2023-02-06T06:55:54.188Z,16.92
2023-02-06T06:58:21.499Z,15.88
2023-02-06T07:00:48.457Z,16.33
2023-02-06T07:03:15.340Z,17.40
2023-02-06T07:05:42.664Z,15.13
2023-02-06T07:08:09.794Z,14.73
2023-02-06T07:10:36.542Z,16.08
2023-02-06T07:13:03.357Z,13.52
2023-02-06T07:15:30.210Z,16.13
2023-02-06T07:17:57.580Z,15.85
2023-02-06T07:20:24.432Z,16.00
2023-02-06T07:22:51.441Z,17.67
2023-02-06T07:25:20.442Z,17.00
2023-02-06T07:27:47.867Z,16.90
2023-02-06T07:30:15.642Z,15.35
2023-02-06T07:32:42.435Z,17.38
2023-02-06T07:35:09.587Z,16.92
2023-02-06T07:37:36.537Z,16.27
2023-02-06T07:40:05.763Z,16.45
2023-02-06T07:42:33.917Z,18.20
2023-02-06T07:45:00.966Z,14.65
2023-02-06T07:47:27.757Z,15.43
2023-02-06T07:49:54.624Z,15.77
2023-02-06T07:52:22.699Z,14.55
2023-02-06T07:54:49.458Z,17.25
2023-02-06T07:57:16.474Z,17.85
2023-02-06T07:59:43.295Z,17.77
2023-02-06T08:02:12.274Z,17.35
2023-02-06T08:04:39.925Z,17.58
2023-02-06T08:07:09.972Z,15.55
2023-02-06T08:09:37.150Z,17.42
2023-02-06T08:12:04.245Z,18.08
2023-02-06T08:14:31.711Z,18.15
2023-02-06T08:16:58.490Z,16.20
2023-02-06T08:19:25.753Z,16.23
2023-02-06T08:21:53.080Z,17.30
2023-02-06T08:24:19.858Z,16.73
2023-02-06T08:26:47.069Z,15.90
2023-02-06T08:29:14.570Z,19.98
2023-02-06T08:31:43.391Z,16.70
2023-02-06T08:34:13.462Z,17.08
2023-02-06T08:36:42.145Z,16.60
2023-02-06T08:39:14.002Z,16.50
2023-02-06T08:41:43.536Z,17.65
2023-02-06T08:44:16.966Z,18.05
2023-02-06T08:46:46.256Z,17.52
2023-02-06T08:49:19.801Z,17.80
2023-02-06T08:51:49.848Z,18.08
2023-02-06T08:54:20.944Z,16.38
2023-02-06T08:56:48.886Z,19.00
2023-02-06T08:59:18.151Z,20.55
2023-02-06T09:01:45.914Z,18.50
2023-02-06T09:04:14.332Z,18.85
2023-02-06T09:06:44.637Z,20.52
2023-02-06T09:09:12.793Z,20.52
2023-02-06T09:11:40.162Z,21.02
2023-02-06T09:14:08.975Z,21.00
2023-02-06T09:16:38.054Z,21.02
2023-02-06T09:19:06.610Z,20.40
2023-02-06T09:21:35.956Z,21.27
2023-02-06T09:24:07.276Z,21.00
2023-02-06T09:26:44.846Z,19.40
2023-02-06T09:29:20.599Z,22.27
2023-02-06T09:31:47.899Z,19.48
2023-02-06T09:34:15.257Z,19.30
2023-02-06T09:36:42.282Z,19.10
2023-02-06T09:39:09.699Z,19.52
2023-02-06T09:42:18.001Z,20.08
2023-02-06T09:44:51.530Z,19.65
2023-02-06T09:47:30.594Z,17.75
2023-02-06T09:50:02.969Z,18.45
2023-02-06T09:52:52.397Z,16.50
2023-02-06T09:55:48.272Z,14.82
2023-02-06T09:58:50.012Z,14.63
2023-02-06T10:01:42.980Z,14.27
2023-02-06T10:04:28.016Z,13.82
2023-02-06T10:07:07.929Z,13.20
2023-02-06T10:09:45.388Z,14.00
2023-02-06T10:12:27.369Z,13.68
2023-02-06T10:15:18.692Z,12.38
2023-02-06T10:17:54.434Z,11.60
2023-02-06T10:20:54.301Z,12.27
2023-02-06T10:23:30.398Z,11.48
2023-02-06T10:26:17.430Z,11.90
2023-02-06T10:28:57.225Z,10.55
2023-02-06T10:31:34.887Z,11.35
2023-02-06T10:34:19.938Z,10.45
2023-02-06T10:37:15.599Z,9.55
2023-02-06T10:39:59.801Z,11.25
2023-02-06T10:42:35.702Z,8.50
2023-02-06T10:45:36.178Z,10.52
2023-02-06T10:48:15.167Z,11.80
2023-02-06T10:50:52.710Z,11.50
2023-02-06T10:53:29.433Z,11.15
2023-02-06T10:56:17.627Z,10.20
2023-02-06T10:58:56.612Z,9.80
2023-02-06T11:01:27.119Z,8.95
2023-02-06T11:04:17.270Z,8.80
2023-02-06T11:06:47.154Z,8.80
2023-02-06T11:09:14.728Z,8.27
2023-02-06T11:11:48.548Z,9.38
2023-02-06T11:14:22.402Z,7.33
2023-02-06T11:16:50.282Z,8.90
2023-02-06T11:19:25.548Z,8.40
2023-02-06T11:22:04.638Z,8.35
2023-02-06T11:24:31.724Z,7.63
2023-02-06T11:27:03.523Z,7.93
2023-02-06T11:29:37.161Z,7.70
2023-02-06T11:32:07.965Z,6.85
2023-02-06T11:35:00.258Z,6.68
2023-02-06T11:37:40.609Z,7.32
2023-02-06T11:40:19.907Z,7.07
2023-02-06T11:42:50.311Z,6.13
2023-02-06T11:45:23.127Z,6.60
2023-02-06T11:47:49.962Z,12.98
2023-02-06T11:50:29.929Z,17.48
2023-02-06T11:53:20.042Z,12.77
2023-02-06T11:56:16.529Z,10.27
2023-02-06T11:58:44.779Z,13.35
2023-02-06T12:01:21.889Z,15.27
2023-02-06T12:03:58.311Z,14.35
2023-02-06T12:06:32.749Z,11.52
2023-02-06T12:09:10.682Z,8.25
2023-02-06T12:11:48.865Z,8.93
2023-02-06T12:14:29.647Z,9.48
2023-02-06T12:16:59.032Z,9.88
2023-02-06T12:19:33.877Z,8.20
2023-02-06T12:24:40.307Z,6.13
2023-02-06T12:27:28.821Z,6.03
2023-02-06T12:30:27.322Z,5.00
2023-02-06T12:33:05.724Z,5.03
2023-02-06T12:35:47.876Z,5.22
2023-02-06T12:38:40.993Z,5.03
2023-02-06T12:41:32.538Z,4.82
2023-02-06T12:44:09.495Z,5.15
2023-02-06T12:46:36.561Z,4.60
2023-02-06T12:49:24.380Z,4.82
2023-02-06T12:52:00.220Z,5.45
2023-02-06T12:54:47.149Z,5.18
2023-02-06T12:57:23.830Z,4.47
2023-02-06T13:00:28.383Z,4.82
2023-02-06T13:03:16.650Z,5.65
2023-02-06T13:06:10.241Z,5.50
2023-02-06T13:08:56.127Z,4.88
2023-02-06T13:11:29.081Z,5.10
2023-02-06T13:14:24.747Z,5.50
2023-02-06T13:16:55.326Z,5.25
2023-02-06T13:19:30.352Z,4.90
2023-02-06T13:22:19.436Z,4.90
2023-02-06T13:24:50.192Z,5.28
2023-02-06T13:27:23.818Z,5.72
2023-02-06T13:29:54.253Z,5.93
2023-02-06T13:32:24.252Z,6.47
2023-02-06T13:35:14.899Z,6.55
2023-02-06T13:37:46.802Z,6.18
2023-02-06T13:40:24.094Z,6.20
2023-02-06T13:42:57.854Z,5.63
2023-02-06T13:45:32.724Z,5.53
2023-02-06T13:50:44.531Z,5.47
2023-02-06T13:53:36.940Z,5.10
2023-02-06T13:56:44.436Z,5.43
2023-02-06T13:59:21.115Z,5.38
2023-02-06T14:01:48.157Z,5.60
2023-02-06T14:04:24.783Z,5.80
2023-02-06T14:07:12.430Z,6.18
2023-02-06T14:09:56.619Z,6.57
2023-02-06T14:12:50.941Z,7.20
2023-02-06T14:15:56.353Z,7.60
2023-02-06T14:18:35.285Z,6.85
2023-02-06T14:21:35.468Z,7.20
2023-02-06T14:24:34.782Z,7.78
2023-02-06T14:27:39.438Z,7.20
2023-02-06T14:30:42.764Z,6.82
2023-02-06T14:33:48.452Z,6.30
2023-02-06T14:37:16.855Z,5.70
2023-02-06T14:40:12.110Z,6.28
2023-02-06T14:42:43.784Z,6.70
2023-02-06T14:45:38.593Z,6.95
2023-02-06T14:48:30.956Z,7.43
2023-02-06T14:50:59.670Z,6.45
2023-02-06T14:53:33.003Z,7.03
2023-02-06T14:56:21.447Z,6.55
2023-02-06T14:58:51.511Z,6.45
2023-02-06T15:01:18.324Z,5.80
2023-02-06T15:03:47.189Z,5.55
2023-02-06T15:06:38.623Z,6.13
2023-02-06T15:09:07.786Z,5.88
2023-02-06T15:11:35.196Z,5.22
2023-02-06T15:14:16.718Z,5.28
2023-02-06T15:16:50.228Z,5.28
2023-02-06T15:19:27.551Z,6.10
2023-02-06T15:22:07.521Z,6.28
2023-02-06T15:25:05.128Z,6.70
2023-02-06T15:27:36.127Z,5.55
2023-02-06T15:30:22.739Z,5.75
2023-02-06T15:32:53.812Z,4.55
2023-02-06T15:35:34.041Z,4.55
2023-02-06T15:38:22.920Z,4.70
2023-02-06T15:40:55.484Z,4.63
2023-02-06T15:43:25.594Z,4.32
2023-02-06T15:46:02.538Z,4.30
2023-02-06T15:48:43.628Z,5.07
2023-02-06T15:51:28.488Z,5.45
2023-02-06T15:54:09.600Z,5.82
2023-02-06T15:56:41.352Z,5.30
2023-02-06T15:59:20.961Z,5.38
2023-02-06T16:01:48.968Z,6.38
2023-02-06T16:04:31.648Z,5.82
2023-02-06T16:07:15.471Z,6.00
2023-02-06T16:09:49.628Z,6.45
2023-02-06T16:12:18.175Z,6.78
2023-02-06T16:14:57.428Z,7.03
2023-02-06T16:17:31.774Z,7.00
2023-02-06T16:20:24.819Z,7.07
2023-02-06T16:22:57.106Z,6.82
2023-02-06T16:25:33.143Z,8.23
2023-02-06T16:28:00.583Z,7.35
2023-02-06T16:30:35.021Z,6.80
2023-02-06T16:33:30.372Z,6.25
2023-02-06T16:35:57.434Z,7.90
2023-02-06T16:38:24.312Z,6.38
2023-02-06T16:40:51.361Z,7.03
2023-02-06T16:43:20.513Z,6.60
2023-02-06T16:45:49.203Z,7.85
2023-02-06T16:48:18.052Z,7.10
2023-02-06T16:50:48.172Z,7.10
2023-02-06T16:53:22.969Z,6.35
2023-02-06T16:58:21.857Z,8.05
2023-02-06T17:00:49.637Z,10.57
2023-02-06T17:03:17.839Z,10.18
2023-02-06T17:05:46.921Z,10.38
2023-02-06T17:08:24.996Z,9.10
2023-02-06T17:10:52.534Z,10.73
2023-02-06T17:13:23.258Z,10.02
2023-02-06T17:15:53.363Z,10.60
2023-02-06T17:18:23.078Z,10.05
2023-02-06T17:20:52.965Z,10.60
2023-02-06T17:23:20.595Z,10.93
2023-02-06T17:25:47.484Z,10.05
2023-02-06T17:28:20.580Z,11.98
2023-02-06T17:30:49.009Z,12.07
2023-02-06T17:33:15.878Z,13.05
2023-02-06T17:35:43.158Z,11.65
2023-02-06T17:38:10.607Z,12.75
2023-02-06T17:40:41.036Z,11.57
2023-02-06T17:43:08.482Z,11.82
2023-02-06T17:45:38.923Z,12.50
2023-02-06T17:48:06.992Z,11.48
2023-02-06T17:50:37.731Z,11.77
2023-02-06T17:53:06.207Z,13.27
2023-02-06T17:55:35.329Z,12.63
2023-02-06T17:58:02.507Z,13.27
2023-02-06T18:00:29.739Z,12.88
2023-02-06T18:02:59.563Z,11.30
2023-02-06T18:05:26.986Z,11.00
2023-02-06T18:07:54.067Z,10.77
2023-02-06T18:10:24.032Z,10.48
2023-02-06T18:12:50.822Z,10.00
2023-02-06T18:15:18.025Z,9.85
2023-02-06T18:17:44.816Z,9.10
2023-02-06T18:20:13.518Z,10.60
2023-02-06T18:22:41.403Z,10.00
2023-02-06T18:25:14.817Z,9.70
2023-02-06T18:27:45.851Z,9.00
2023-02-06T18:30:14.991Z,9.00
2023-02-06T18:32:41.929Z,8.00
2023-02-06T18:35:09.581Z,8.23
2023-02-06T18:37:36.495Z,8.55
2023-02-06T18:40:04.404Z,10.05
2023-02-06T18:42:49.741Z,9.20
2023-02-06T18:45:18.624Z,9.10
2023-02-06T18:47:45.678Z,9.07
2023-02-06T18:50:13.146Z,8.95
2023-02-06T18:52:40.588Z,8.10
2023-02-06T18:55:08.433Z,10.10
2023-02-06T18:57:36.365Z,9.00
2023-02-06T19:00:07.111Z,9.93
2023-02-06T19:02:34.300Z,9.20
2023-02-06T19:05:01.890Z,11.38
2023-02-06T19:07:29.230Z,18.40
2023-02-06T19:09:58.700Z,29.77
2023-02-06T19:12:28.648Z,36.13
2023-02-06T19:14:57.443Z,42.67
2023-02-06T19:17:26.550Z,38.08
2023-02-06T19:19:54.341Z,44.88
2023-02-06T19:22:21.172Z,45.40
2023-02-06T19:24:48.150Z,44.25
2023-02-06T19:27:15.011Z,41.95
2023-02-06T19:29:42.308Z,36.08
2023-02-06T19:32:10.317Z,26.52
2023-02-06T19:34:39.915Z,26.52
2023-02-06T19:37:10.374Z,24.40
2023-02-06T19:39:40.354Z,28.55
2023-02-06T19:42:10.439Z,27.83
2023-02-06T19:44:38.015Z,26.55
2023-02-06T19:47:04.964Z,24.17
2023-02-06T19:49:32.304Z,24.45
2023-02-06T19:52:00.722Z,24.33
2023-02-06T19:54:28.007Z,24.45
2023-02-06T19:56:55.256Z,23.60
2023-02-06T19:59:27.538Z,22.55
2023-02-06T20:02:02.698Z,22.83
2023-02-06T20:04:35.043Z,18.77
2023-02-06T20:07:02.805Z,18.77
2023-02-06T20:09:30.644Z,19.60
2023-02-06T20:11:57.967Z,22.98
2023-02-06T20:14:26.003Z,22.35
2023-02-06T20:16:53.050Z,21.08
2023-02-06T20:19:25.020Z,21.77
2023-02-06T20:21:56.679Z,22.75
2023-02-06T20:24:27.780Z,27.40
2023-02-06T20:27:01.765Z,21.67
2023-02-06T20:29:36.588Z,19.03
2023-02-06T20:32:05.695Z,19.63
2023-02-06T20:34:33.701Z,28.15
2023-02-06T20:37:00.543Z,30.40
2023-02-06T20:39:27.744Z,26.00
2023-02-06T20:41:54.785Z,28.13
2023-02-06T20:44:22.062Z,24.15
2023-02-06T20:46:49.873Z,20.90
2023-02-06T20:49:26.474Z,20.58
2023-02-06T20:51:53.832Z,21.55
2023-02-06T20:54:21.842Z,20.20
2023-02-06T20:56:48.992Z,20.27
2023-02-06T20:59:20.577Z,17.95
2023-02-06T21:01:48.096Z,20.02
2023-02-06T21:04:16.724Z,19.30
2023-02-06T21:06:44.548Z,17.88
2023-02-06T21:09:12.440Z,17.08
2023-02-06T21:11:48.858Z,19.02
2023-02-06T21:14:16.963Z,19.65
2023-02-06T21:16:46.504Z,21.00
2023-02-06T21:19:16.725Z,20.02
2023-02-06T21:21:45.989Z,21.92
2023-02-06T21:24:14.105Z,19.85
2023-02-06T21:26:41.081Z,20.00
2023-02-06T21:29:08.320Z,18.55
2023-02-06T21:31:38.549Z,19.52
2023-02-06T21:34:21.526Z,22.75
2023-02-06T21:36:49.065Z,22.02
2023-02-06T21:39:22.084Z,23.15
2023-02-06T21:41:54.019Z,25.73
2023-02-06T21:44:24.159Z,26.70
2023-02-06T21:46:51.806Z,29.02
2023-02-06T21:49:19.519Z,29.27
2023-02-06T21:51:46.729Z,28.05
2023-02-06T21:54:13.570Z,33.17
2023-02-06T21:56:40.346Z,34.58
2023-02-06T21:59:08.224Z,33.05
2023-02-06T22:01:35.736Z,39.08
2023-02-06T22:04:03.587Z,40.83
2023-02-06T22:06:31.056Z,36.28
2023-02-06T22:09:05.323Z,39.20
2023-02-06T22:11:32.973Z,37.45
2023-02-06T22:14:07.004Z,47.58
2023-02-06T22:16:34.228Z,44.30
2023-02-06T22:19:01.091Z,44.72
2023-02-06T22:21:30.382Z,47.60
2023-02-06T22:24:01.293Z,43.80
2023-02-06T22:26:30.412Z,43.13
2023-02-06T22:29:01.041Z,42.20
2023-02-06T22:31:32.228Z,41.20
2023-02-06T22:34:00.634Z,40.33
2023-02-06T22:36:31.584Z,39.95
2023-02-06T22:39:03.725Z,46.92
2023-02-06T22:41:30.845Z,44.78
2023-02-06T22:43:58.484Z,45.65
2023-02-06T22:46:30.352Z,42.97
2023-02-06T22:48:57.858Z,41.08
2023-02-06T22:51:25.586Z,40.22
2023-02-06T22:53:52.969Z,40.42
2023-02-06T22:56:27.157Z,41.72
2023-02-06T22:59:19.652Z,40.75
2023-02-06T23:02:00.447Z,39.58
2023-02-06T23:04:30.737Z,39.08
2023-02-06T23:06:57.834Z,38.22
2023-02-06T23:09:32.129Z,36.20
2023-02-06T23:12:01.078Z,32.20
2023-02-06T23:14:30.837Z,33.95
2023-02-06T23:17:00.388Z,32.38
2023-02-06T23:19:28.490Z,30.58
2023-02-06T23:21:55.541Z,29.15
2023-02-06T23:24:22.528Z,29.48
2023-02-06T23:26:51.767Z,31.85
2023-02-06T23:29:20.681Z,28.30
2023-02-06T23:31:48.859Z,31.25
2023-02-06T23:34:18.120Z,28.00
2023-02-06T23:36:45.264Z,29.40
2023-02-06T23:39:12.602Z,30.48
2023-02-06T23:41:39.878Z,29.23
2023-02-06T23:44:08.274Z,30.13
2023-02-06T23:46:37.377Z,28.45
2023-02-06T23:49:05.645Z,28.35
2023-02-06T23:51:33.414Z,31.83
2023-02-06T23:54:00.488Z,30.50
2023-02-06T23:56:30.582Z,29.45
2023-02-06T23:58:59.489Z,33.97
